Sunday, November 23, 2014
07:21 UTC
  |  Log In   |  Register Free
Airport Search:

La Guardia Airport
(KLGA)

FAA data valid effective November 13, 2014 - January 08, 2015 (unless otherwise noted).

 
 
 
 
 
 
 
 
 
 
 
 
 
 

Current Aviation Weather for La Guardia Airport (KLGA)

The most recent METAR observation for KLGA was updated at: 0716
METAR Summary (Translated METAR)
KLGA
230651Z 24010KT 10SM BKN090 BKN120 BKN250 07/M06 A3018 RMK AO2 SLP220 T00721061
KJFK
230651Z 24012KT 10SM FEW090 SCT120 BKN200 07/M03 A3020 RMK AO2 SLP226 T00671033 $
(9.3 nm SE from KLGA)
KTEB
230651Z 22003KT 10SM SCT120 05/M06 A3018 RMK AO2 SLP218 T00501061
(9.6 nm NW from KLGA)
TAF Summary (Translated TAF)
KLGA
230527Z 2306/2406 24010KT P6SM SCT150 OVC250 WS020/26040KT FM231300 22008KT P6SM SCT080 BKN120 FM232100 19010KT P6SM SCT120 BKN200 FM240400 15006KT P6SM BKN008 BKN120
KJFK
(9.3 nm SE from KLGA)
230527Z 2306/2412 25012KT P6SM SCT150 OVC250 WS020/26040KT FM231300 22012KT P6SM SCT080 BKN120 FM232000 19010KT P6SM SCT120 BKN200 FM240300 15006KT P6SM BKN008 BKN120 FM240600 14015KT 3SM RA BR OVC005
  Airport Weather Conditions for KLGA

 Current Weather at LGA
45° F
Mostly Cloudy
Southwest winds at 11.5 mph
LGA NOAA Radar

Pressure: 30.18 in
Humidity: 39%
Wind: Southwest at 11.5 MPH (10 KT)
Dew Point: 21.0°F
Visibility: 10.00 mi


Airport Weather Forecast for KLGA

Translated METAR and TAF for KLGA
Translated METAR for KLGA (0716 UTC 23 November 2014)
found at http://aviationweather.gov/adds/metars/
 
METAR text: KLGA 230651Z 24010KT 10SM BKN090 BKN120 BKN250 07/M06 A3018 RMK AO2 SLP220 T00721061
Conditions at: KLGA (NYC/LA GUARDIA , NY, US) observed 0651 UTC 23 November 2014
Temperature: 7.2°C (45°F)
Dewpoint: -6.1°C (21°F) [RH = 38%]
Pressure (altimeter): 30.18 inches Hg (1022.1 mb)
[Sea-level pressure: 1022.0 mb]
Winds: from the WSW (240 degrees) at 12 MPH (10 knots; 5.2 m/s)
Visibility: 10 or more miles (16+ km)
Ceiling: 9000 feet AGL
Clouds: broken clouds at 9000 feet AGL
broken clouds at 12000 feet AGL
broken clouds at 25000 feet AGL
Weather: no significant weather observed at this time
Translated TAF for KLGA
Forecast for: KLGA (NYC/LA GUARDIA , NY, US)
TAF Text: KLGA 230527Z 2306/2406 24010KT P6SM SCT150 OVC250 WS020/26040KT
Forecast period: 0600 to 1300 UTC 23 November 2014
Forecast type: FROM: standard forecast or significant change
Winds: from the WSW (240 degrees) at 12 MPH (10 knots; 5.2 m/s)
Visibility: 6 or more miles (10+ km)
Ceiling: 25000 feet AGL
Clouds: scattered clouds at 15000 feet AGL
overcast cloud deck at 25000 feet AGL
Wind shear: at 2000 feet ( 610 m) AGL, from the W (260 degrees) at 46 MPH (40 knots; 20.8 m/s)
Weather: no significant weather forecast for this period
TAF Text: FM231300 22008KT P6SM SCT080 BKN120
Forecast period: 1300 to 2100 UTC 23 November 2014
Forecast type: FROM: standard forecast or significant change
Winds: from the SW (220 degrees) at 9 MPH (8 knots; 4.2 m/s)
Visibility: 6 or more miles (10+ km)
Ceiling: 12000 feet AGL
Clouds: scattered clouds at 8000 feet AGL
broken clouds at 12000 feet AGL
Weather: no significant weather forecast for this period
TAF Text: FM232100 19010KT P6SM SCT120 BKN200
Forecast period: 2100 UTC 23 November 2014 to 0400 UTC 24 November 2014
Forecast type: FROM: standard forecast or significant change
Winds: from the S (190 degrees) at 12 MPH (10 knots; 5.2 m/s)
Visibility: 6 or more miles (10+ km)
Ceiling: 20000 feet AGL
Clouds: scattered clouds at 12000 feet AGL
broken clouds at 20000 feet AGL
Weather: no significant weather forecast for this period
TAF Text: FM240400 15006KT P6SM BKN008 BKN120
Forecast period: 0400 to 0600 UTC 24 November 2014
Forecast type: FROM: standard forecast or significant change
Winds: from the SSE (150 degrees) at 7 MPH (6 knots; 3.1 m/s)
Visibility: 6 or more miles (10+ km)
Ceiling: 800 feet AGL
Clouds: broken clouds at 800 feet AGL
broken clouds at 12000 feet AGL
Weather: no significant weather forecast for this period

Find All Airport Services Find A Hotel Find A Rental Car Find A Golf Course Find A Restaurant $100 Hamburger



FBO's on the Field
FBO Company Facility Photos Services Transportation Aviation Fuel Prices: Prices include tax
Catering Weather Repair Courtesy Rental Type 100LL JetA JetA+ MOGAS 8087
 
Sheltair

This FBO has not yet been rated
FS:Avfuel
Last Updated: Nov-18
Login to update fuel prices
SS:
Contact SheltairMore FBO Information
 
Add another FBO Facility Photos Catering Weather Repair Courtesy Rental Type 100LL JetA JetA+ MOGAS 8087
Services Transportation Aviation Fuel Prices: Prices include tax


model-print
model-print
model-print
model-print